createdAt,value
2023-04-19T04:51:46.594Z,24.92
2023-04-19T04:54:14.496Z,27.25
2023-04-19T04:56:42.467Z,24.70
2023-04-19T04:59:10.410Z,28.45
2023-04-19T05:01:38.259Z,29.50
2023-04-19T05:04:06.583Z,28.00
2023-04-19T05:06:34.431Z,28.27
2023-04-19T05:09:03.569Z,24.42
2023-04-19T05:11:31.489Z,25.38
2023-04-19T05:13:59.289Z,28.48
2023-04-19T05:16:28.428Z,25.60
2023-04-19T05:18:56.607Z,23.63
2023-04-19T05:21:24.433Z,25.20
2023-04-19T05:23:53.704Z,25.08
2023-04-19T05:26:22.995Z,25.08
2023-04-19T05:28:50.783Z,25.80
2023-04-19T05:31:20.846Z,24.10
2023-04-19T05:33:49.287Z,25.95
2023-04-19T05:36:17.102Z,22.00
2023-04-19T05:38:44.960Z,21.70
2023-04-19T05:41:13.066Z,22.25
2023-04-19T05:43:42.196Z,30.02
2023-04-19T05:46:10.100Z,25.23
2023-04-19T05:48:38.057Z,23.77
2023-04-19T05:51:06.281Z,21.52
2023-04-19T05:53:34.084Z,23.17
2023-04-19T05:56:02.007Z,27.98
2023-04-19T05:58:29.836Z,21.98
2023-04-19T06:00:59.112Z,21.60
2023-04-19T06:03:28.995Z,25.45
2023-04-19T06:05:59.888Z,22.83
2023-04-19T06:08:27.803Z,24.77
2023-04-19T06:11:02.191Z,29.35
2023-04-19T06:13:36.090Z,23.58
2023-04-19T06:16:05.809Z,24.50
2023-04-19T06:18:33.769Z,26.38
2023-04-19T06:21:01.673Z,30.00
2023-04-19T06:23:29.606Z,26.63
2023-04-19T06:25:57.505Z,25.38
2023-04-19T06:28:25.739Z,26.48
2023-04-19T06:30:53.629Z,26.27
2023-04-19T06:33:22.782Z,22.50
2023-04-19T06:35:50.625Z,25.95
2023-04-19T06:38:18.472Z,22.75
2023-04-19T06:40:46.331Z,23.67
2023-04-19T06:43:14.135Z,24.30
2023-04-19T06:45:41.967Z,25.92
2023-04-19T06:48:09.996Z,27.98
2023-04-19T06:50:39.298Z,23.95
2023-04-19T06:53:07.117Z,22.52
2023-04-19T06:55:35.143Z,25.08
2023-04-19T06:58:02.935Z,24.83
2023-04-19T07:00:30.891Z,24.58
2023-04-19T07:02:59.819Z,23.70
2023-04-19T07:05:27.925Z,22.73
2023-04-19T07:07:57.087Z,22.45
2023-04-19T07:10:25.032Z,24.77
2023-04-19T07:12:52.914Z,22.73
2023-04-19T07:15:20.918Z,24.80
2023-04-19T07:17:48.830Z,23.17
2023-04-19T07:20:16.695Z,21.17
2023-04-19T07:22:44.577Z,22.52
2023-04-19T07:25:13.859Z,25.65
2023-04-19T07:27:41.970Z,25.67
2023-04-19T07:30:10.762Z,24.95
2023-04-19T07:32:38.697Z,23.63
2023-04-19T07:35:07.782Z,20.30
2023-04-19T07:37:35.576Z,23.27
2023-04-19T07:40:03.548Z,20.52
2023-04-19T07:42:32.843Z,24.55
2023-04-19T07:45:00.701Z,22.67
2023-04-19T07:47:28.516Z,23.50
2023-04-19T07:49:56.768Z,21.15
2023-04-19T07:52:24.571Z,22.35
2023-04-19T07:54:52.401Z,25.27
2023-04-19T07:57:20.263Z,21.40
2023-04-19T07:59:49.393Z,20.75
2023-04-19T08:02:19.158Z,19.75
2023-04-19T08:04:48.391Z,20.13
2023-04-19T08:07:16.487Z,23.63
2023-04-19T08:09:44.355Z,18.98
2023-04-19T08:12:17.208Z,22.60
2023-04-19T08:15:03.843Z,17.52
2023-04-19T08:17:41.755Z,20.30
2023-04-19T08:20:12.645Z,18.60
2023-04-19T08:22:41.473Z,18.48
2023-04-19T08:25:10.748Z,20.10
2023-04-19T08:27:38.600Z,19.42
2023-04-19T08:30:09.361Z,20.10
2023-04-19T08:32:37.747Z,22.27
2023-04-19T08:35:08.138Z,23.05
2023-04-19T08:37:36.135Z,24.45
2023-04-19T08:40:05.462Z,20.42
2023-04-19T08:42:36.779Z,17.52
2023-04-19T08:50:28.315Z,20.05
2023-04-19T08:55:30.929Z,22.63
2023-04-19T08:57:59.524Z,18.58
2023-04-19T09:00:28.695Z,19.33
2023-04-19T09:02:58.523Z,18.10
2023-04-19T09:05:26.871Z,18.40
2023-04-19T09:07:54.895Z,16.80
2023-04-19T09:10:22.772Z,17.58
2023-04-19T09:13:02.621Z,18.25
2023-04-19T09:15:39.761Z,14.55
2023-04-19T09:18:09.785Z,19.95
2023-04-19T09:20:38.627Z,19.83
2023-04-19T09:23:07.575Z,17.23
2023-04-19T09:25:58.780Z,20.58
2023-04-19T09:28:23.825Z,24.23
2023-04-19T09:31:02.489Z,18.98
2023-04-19T09:33:36.216Z,19.58
2023-04-19T09:36:04.576Z,20.15
2023-04-19T09:38:46.769Z,18.77
2023-04-19T09:41:14.564Z,17.65
2023-04-19T09:46:33.454Z,20.35
2023-04-19T09:49:41.705Z,18.95
2023-04-19T09:54:43.106Z,19.83
2023-04-19T09:57:11.133Z,21.30
2023-04-19T09:59:38.923Z,19.15
2023-04-19T10:02:11.681Z,19.40
2023-04-19T10:04:59.636Z,20.15
2023-04-19T10:07:31.086Z,17.50
2023-04-19T10:10:11.706Z,21.98
2023-04-19T10:13:07.621Z,22.77
2023-04-19T10:18:11.347Z,21.98
2023-04-19T10:20:49.357Z,21.80
2023-04-19T10:23:18.000Z,20.20
2023-04-19T10:25:47.870Z,20.48
2023-04-19T10:28:20.500Z,20.45
2023-04-19T10:30:55.591Z,21.60
2023-04-19T10:33:29.350Z,18.58
2023-04-19T10:35:58.384Z,19.38
2023-04-19T10:38:47.033Z,18.08
2023-04-19T10:41:17.477Z,19.25
2023-04-19T10:43:48.455Z,19.97
2023-04-19T10:46:36.811Z,22.65
2023-04-19T10:49:07.891Z,19.25
